Time;durP1;ratioP1;P1;durP2;ratioP2;P2;SDS_P1;SDS_P2;PMS_P1;PMS_P2;Temp;Humidity;BMP_temperature;BMP_pressure;BME280_temperature;BME280_humidity;BME280_pressure;Samples;Min_cycle;Max_cycle;Signal;HPM_P1;HPM_P2
2021/12/03 00:00:45;;;;;;;1.50;0.80;;;;;;;;;;5115016;28;20903;-80
2021/12/03 00:03:12;;;;;;;1.20;0.70;;;;;;;;;;5115267;28;20421;-80
2021/12/03 00:05:38;;;;;;;1.10;0.70;;;;;;;;;;5113847;28;20421;-80
2021/12/03 00:08:05;;;;;;;1.00;0.60;;;;;;;;;;5114026;28;20421;-79
2021/12/03 00:10:31;;;;;;;1.30;0.60;;;;;;;;;;5113508;28;20453;-79
2021/12/03 00:13:00;;;;;;;1.10;0.70;;;;;;;;;;5112482;28;20433;-79
2021/12/03 00:15:27;;;;;;;1.50;0.77;;;;;;;;;;5112503;28;20934;-79
2021/12/03 00:17:53;;;;;;;1.10;0.60;;;;;;;;;;5112436;28;20912;-79
2021/12/03 00:20:22;;;;;;;1.20;0.80;;;;;;;;;;5113454;28;20405;-79
2021/12/03 00:22:49;;;;;;;1.00;0.60;;;;;;;;;;5112335;28;20489;-79
2021/12/03 00:25:15;;;;;;;1.53;0.80;;;;;;;;;;5113999;28;20416;-80
2021/12/03 00:27:42;;;;;;;1.10;0.70;;;;;;;;;;5115756;28;20504;-79
2021/12/03 00:30:10;;;;;;;1.10;0.70;;;;;;;;;;5112343;28;20487;-80
2021/12/03 00:32:36;;;;;;;1.30;0.60;;;;;;;;;;5116225;28;20421;-80
2021/12/03 00:35:03;;;;;;;1.10;0.60;;;;;;;;;;5117251;28;20397;-81
2021/12/03 00:37:29;;;;;;;1.00;0.57;;;;;;;;;;5123197;28;20424;-79
2021/12/03 00:39:55;;;;;;;1.10;0.70;;;;;;;;;;5122556;28;20893;-79
2021/12/03 00:42:21;;;;;;;1.07;0.60;;;;;;;;;;5114078;28;20489;-80
2021/12/03 00:44:53;;;;;;;1.00;0.63;;;;;;;;;;5113650;28;20401;-79
2021/12/03 00:47:19;;;;;;;1.50;0.60;;;;;;;;;;5113732;28;20404;-79
2021/12/03 00:49:45;;;;;;;1.10;0.67;;;;;;;;;;5114296;28;20457;-80
2021/12/03 00:52:11;;;;;;;1.03;0.60;;;;;;;;;;5122207;28;20449;-80
2021/12/03 00:54:37;;;;;;;1.10;0.70;;;;;;;;;;5122440;28;20768;-80
2021/12/03 00:57:03;;;;;;;1.00;0.70;;;;;;;;;;5124260;28;20492;-80
2021/12/03 00:59:30;;;;;;;1.10;0.53;;;;;;;;;;5121590;28;20404;-80
2021/12/03 01:01:56;;;;;;;1.13;0.60;;;;;;;;;;5115276;28;20767;-80
2021/12/03 01:04:22;;;;;;;1.00;0.50;;;;;;;;;;5115634;28;20412;-80
2021/12/03 01:06:48;;;;;;;0.93;0.60;;;;;;;;;;5115640;28;20500;-80
2021/12/03 01:09:14;;;;;;;1.00;0.60;;;;;;;;;;5114988;28;20452;-80
2021/12/03 01:11:41;;;;;;;1.30;0.63;;;;;;;;;;5114057;28;20416;-80
2021/12/03 01:14:07;;;;;;;1.00;0.60;;;;;;;;;;5113773;28;20420;-80
2021/12/03 01:16:33;;;;;;;1.07;0.60;;;;;;;;;;5113774;28;20416;-80
2021/12/03 01:19:00;;;;;;;1.00;0.60;;;;;;;;;;5114462;28;20444;-80
2021/12/03 01:21:26;;;;;;;1.03;0.57;;;;;;;;;;5113542;28;20402;-80
2021/12/03 01:23:53;;;;;;;1.10;0.60;;;;;;;;;;5115166;28;20462;-80
2021/12/03 01:26:19;;;;;;;1.00;0.60;;;;;;;;;;5113149;28;20408;-80
2021/12/03 01:28:46;;;;;;;1.47;0.70;;;;;;;;;;5113206;28;20409;-80
2021/12/03 01:31:13;;;;;;;8.83;0.70;;;;;;;;;;5114163;28;20452;-80
2021/12/03 01:33:39;;;;;;;2.03;0.50;;;;;;;;;;5114320;28;20421;-79
2021/12/03 01:36:05;;;;;;;1.17;0.50;;;;;;;;;;5113983;28;20401;-79
2021/12/03 01:38:31;;;;;;;1.43;0.70;;;;;;;;;;5113865;28;20769;-80
2021/12/03 01:40:57;;;;;;;1.40;0.87;;;;;;;;;;5113807;28;20772;-79
2021/12/03 01:43:25;;;;;;;1.20;0.60;;;;;;;;;;5113947;28;20428;-79
2021/12/03 01:46:02;;;;;;;1.40;0.60;;;;;;;;;;5114409;28;20845;-80
2021/12/03 01:48:29;;;;;;;1.10;0.70;;;;;;;;;;5112084;28;20546;-79
2021/12/03 01:50:55;;;;;;;1.23;0.80;;;;;;;;;;5110956;28;20461;-79
2021/12/03 01:53:23;;;;;;;1.20;0.80;;;;;;;;;;5115315;28;20432;-80
2021/12/03 01:55:49;;;;;;;1.30;0.70;;;;;;;;;;5112991;28;20492;-80
2021/12/03 01:58:16;;;;;;;1.10;0.80;;;;;;;;;;5111891;28;20496;-80
2021/12/03 02:00:47;;;;;;;1.00;0.53;;;;;;;;;;5112992;28;20404;-80
2021/12/03 02:03:14;;;;;;;1.00;0.60;;;;;;;;;;5113631;28;20421;-80
2021/12/03 02:05:40;;;;;;;1.00;0.50;;;;;;;;;;5111884;28;20413;-80
2021/12/03 02:08:07;;;;;;;1.00;0.50;;;;;;;;;;5113267;28;20452;-80
2021/12/03 02:10:33;;;;;;;1.00;0.63;;;;;;;;;;5112824;28;20459;-80
2021/12/03 02:12:59;;;;;;;1.13;0.70;;;;;;;;;;5113172;28;20428;-79
2021/12/03 02:15:25;;;;;;;1.30;0.60;;;;;;;;;;5112891;28;20820;-80
2021/12/03 02:17:51;;;;;;;0.90;0.60;;;;;;;;;;5113717;28;20769;-80
2021/12/03 02:20:18;;;;;;;1.30;0.80;;;;;;;;;;5112071;28;20413;-80
2021/12/03 02:22:44;;;;;;;1.27;0.70;;;;;;;;;;5113321;28;20456;-80
2021/12/03 02:25:11;;;;;;;1.20;0.63;;;;;;;;;;5112026;28;20992;-79
2021/12/03 02:27:37;;;;;;;1.27;0.83;;;;;;;;;;5113166;28;20910;-80
2021/12/03 02:30:05;;;;;;;2.10;0.80;;;;;;;;;;5112848;28;20800;-80
2021/12/03 02:32:31;;;;;;;1.00;0.63;;;;;;;;;;5113183;28;20421;-80
2021/12/03 02:34:57;;;;;;;1.00;0.60;;;;;;;;;;5113293;28;20400;-80
2021/12/03 02:37:23;;;;;;;1.30;0.67;;;;;;;;;;5111777;28;20915;-80
2021/12/03 02:39:49;;;;;;;1.20;0.70;;;;;;;;;;5112666;28;20440;-80
2021/12/03 02:42:15;;;;;;;1.00;0.60;;;;;;;;;;5111359;28;20436;-79
2021/12/03 02:44:41;;;;;;;1.10;0.60;;;;;;;;;;5112967;28;20907;-80
2021/12/03 02:47:07;;;;;;;1.30;0.67;;;;;;;;;;5111348;28;20409;-80
2021/12/03 02:49:37;;;;;;;1.00;0.53;;;;;;;;;;5112570;28;20448;-80
2021/12/03 02:52:03;;;;;;;0.90;0.50;;;;;;;;;;5112978;28;20416;-80
2021/12/03 02:54:29;;;;;;;1.00;0.60;;;;;;;;;;5112258;28;20405;-80
2021/12/03 02:56:55;;;;;;;1.00;0.60;;;;;;;;;;5117071;28;20412;-79
2021/12/03 02:59:21;;;;;;;0.90;0.60;;;;;;;;;;5117929;28;20876;-79
2021/12/03 03:01:48;;;;;;;1.00;0.70;;;;;;;;;;5117582;28;20412;-79
2021/12/03 03:04:14;;;;;;;1.30;0.80;;;;;;;;;;5116630;28;20420;-78
2021/12/03 03:06:40;;;;;;;1.00;0.60;;;;;;;;;;5114085;28;20477;-79
2021/12/03 03:09:11;;;;;;;0.90;0.60;;;;;;;;;;5115578;28;20433;-79
2021/12/03 03:11:37;;;;;;;2.20;0.80;;;;;;;;;;5115339;28;20405;-80
2021/12/03 03:14:04;;;;;;;1.03;0.60;;;;;;;;;;5114286;28;20559;-80
2021/12/03 03:16:30;;;;;;;1.10;0.60;;;;;;;;;;5115480;28;20397;-80
2021/12/03 03:18:56;;;;;;;1.10;0.60;;;;;;;;;;5114615;28;20401;-80
2021/12/03 03:21:22;;;;;;;1.03;0.60;;;;;;;;;;5115345;28;20907;-79
2021/12/03 03:23:49;;;;;;;0.93;0.57;;;;;;;;;;5116096;28;20444;-80
2021/12/03 03:26:15;;;;;;;1.00;0.60;;;;;;;;;;5117207;28;20465;-80
2021/12/03 03:28:41;;;;;;;1.20;0.90;;;;;;;;;;5115731;28;20401;-80
2021/12/03 03:31:07;;;;;;;0.90;0.57;;;;;;;;;;5115586;28;20483;-80
2021/12/03 03:33:33;;;;;;;1.20;0.80;;;;;;;;;;5116752;28;20495;-80
2021/12/03 03:36:00;;;;;;;0.90;0.50;;;;;;;;;;5115101;28;20405;-80
2021/12/03 03:38:26;;;;;;;1.30;0.70;;;;;;;;;;5114569;28;20405;-80
2021/12/03 03:40:52;;;;;;;1.00;0.60;;;;;;;;;;5114281;28;20469;-80
2021/12/03 03:43:19;;;;;;;1.00;0.60;;;;;;;;;;5115840;28;20520;-79
2021/12/03 03:45:45;;;;;;;0.90;0.50;;;;;;;;;;5115399;28;20419;-79
2021/12/03 03:48:12;;;;;;;1.10;0.70;;;;;;;;;;5115799;28;20844;-79
2021/12/03 03:50:38;;;;;;;1.10;0.70;;;;;;;;;;5115228;28;20456;-79
2021/12/03 03:53:04;;;;;;;1.20;0.70;;;;;;;;;;5115242;28;20423;-79
2021/12/03 03:55:31;;;;;;;1.03;0.60;;;;;;;;;;5115448;28;20480;-80
2021/12/03 03:57:58;;;;;;;1.00;0.60;;;;;;;;;;5115615;28;20644;-79
2021/12/03 04:00:27;;;;;;;1.00;0.50;;;;;;;;;;5114582;28;20401;-79
2021/12/03 04:02:53;;;;;;;1.00;0.50;;;;;;;;;;5114836;28;20425;-80
2021/12/03 04:05:19;;;;;;;1.10;0.60;;;;;;;;;;5115693;28;20405;-80
2021/12/03 04:07:45;;;;;;;1.00;0.70;;;;;;;;;;5114669;28;20413;-80
2021/12/03 04:10:11;;;;;;;1.10;0.60;;;;;;;;;;5113321;28;20459;-80
2021/12/03 04:12:37;;;;;;;1.10;0.60;;;;;;;;;;5113588;28;20502;-79
2021/12/03 04:15:05;;;;;;;1.00;0.60;;;;;;;;;;5115343;28;20485;-80
2021/12/03 04:17:31;;;;;;;1.07;0.60;;;;;;;;;;5115273;28;20906;-80
2021/12/03 04:19:57;;;;;;;1.30;0.80;;;;;;;;;;5113382;28;20401;-80
2021/12/03 04:22:24;;;;;;;1.20;0.60;;;;;;;;;;5113619;28;20464;-79
2021/12/03 04:24:51;;;;;;;1.10;0.70;;;;;;;;;;5113497;28;20424;-79
2021/12/03 04:27:17;;;;;;;1.07;0.70;;;;;;;;;;5113220;28;20504;-79
2021/12/03 04:29:43;;;;;;;1.07;0.60;;;;;;;;;;5112318;28;20490;-79
2021/12/03 04:32:09;;;;;;;1.20;0.70;;;;;;;;;;5112176;28;20412;-79
2021/12/03 04:34:36;;;;;;;1.10;0.60;;;;;;;;;;5111795;28;20500;-79
2021/12/03 04:37:02;;;;;;;0.90;0.50;;;;;;;;;;5111959;28;20409;-79
2021/12/03 04:39:28;;;;;;;2.50;0.70;;;;;;;;;;5111476;28;20420;-79
2021/12/03 04:41:54;;;;;;;1.03;0.60;;;;;;;;;;5113228;28;20401;-79
2021/12/03 04:44:20;;;;;;;1.03;0.60;;;;;;;;;;5113067;28;20412;-79
2021/12/03 04:46:46;;;;;;;1.00;0.70;;;;;;;;;;5114085;28;20397;-79
2021/12/03 04:49:12;;;;;;;1.00;0.67;;;;;;;;;;5112844;28;20408;-79
2021/12/03 04:51:38;;;;;;;1.00;0.57;;;;;;;;;;5113265;28;20461;-79
2021/12/03 04:54:04;;;;;;;1.00;0.70;;;;;;;;;;5114696;28;20431;-79
2021/12/03 04:56:30;;;;;;;1.03;0.63;;;;;;;;;;5114747;28;20401;-79
2021/12/03 04:58:56;;;;;;;1.10;0.67;;;;;;;;;;5113331;28;20408;-79
2021/12/03 05:01:22;;;;;;;1.33;0.60;;;;;;;;;;5113800;28;20405;-79
2021/12/03 05:03:48;;;;;;;2.33;0.70;;;;;;;;;;5113342;28;20481;-79
2021/12/03 05:06:17;;;;;;;1.20;0.60;;;;;;;;;;5113036;28;20437;-79
2021/12/03 05:08:43;;;;;;;1.23;0.70;;;;;;;;;;5112967;28;20400;-79
2021/12/03 05:11:09;;;;;;;1.00;0.63;;;;;;;;;;5113230;28;20456;-79
2021/12/03 05:13:36;;;;;;;1.10;0.70;;;;;;;;;;5112742;28;20413;-79
2021/12/03 05:16:04;;;;;;;1.80;0.80;;;;;;;;;;5112519;28;20408;-79
2021/12/03 05:18:31;;;;;;;1.30;0.70;;;;;;;;;;5111748;28;20920;-79
2021/12/03 05:20:58;;;;;;;1.20;0.77;;;;;;;;;;5112240;28;20899;-79
2021/12/03 05:23:25;;;;;;;1.33;0.70;;;;;;;;;;5112089;28;20448;-79
2021/12/03 05:25:52;;;;;;;1.00;0.60;;;;;;;;;;5127197;22;20484;-74
2021/12/03 05:28:18;;;;;;;1.40;0.90;;;;;;;;;;5091291;28;20922;-74
2021/12/03 05:30:45;;;;;;;1.40;0.70;;;;;;;;;;5073231;28;20504;-75
2021/12/03 05:33:11;;;;;;;1.17;0.70;;;;;;;;;;5091801;28;20405;-75
2021/12/03 05:35:37;;;;;;;1.17;0.67;;;;;;;;;;5091839;28;20414;-74
2021/12/03 05:38:04;;;;;;;10.13;0.70;;;;;;;;;;5091649;28;20402;-76
2021/12/03 05:40:30;;;;;;;1.00;0.50;;;;;;;;;;5091552;28;20929;-75
2021/12/03 05:42:56;;;;;;;0.90;0.60;;;;;;;;;;5091629;28;20405;-75
2021/12/03 05:45:31;;;;;;;1.00;0.50;;;;;;;;;;5091474;28;20793;-75
2021/12/03 05:47:57;;;;;;;1.20;0.70;;;;;;;;;;5091548;28;20404;-75
2021/12/03 05:50:23;;;;;;;1.47;0.60;;;;;;;;;;5091249;28;20904;-75
2021/12/03 05:52:50;;;;;;;1.37;0.60;;;;;;;;;;5091556;28;20394;-76
2021/12/03 05:55:17;;;;;;;7.50;2.30;;;;;;;;;;5091422;28;20423;-75
2021/12/03 05:57:43;;;;;;;13.60;4.10;;;;;;;;;;5073428;28;20402;-74
2021/12/03 06:00:12;;;;;;;4.93;1.93;;;;;;;;;;5091065;28;20467;-75
2021/12/03 06:02:38;;;;;;;6.20;2.37;;;;;;;;;;5091525;28;20401;-74
2021/12/03 06:05:05;;;;;;;18.47;2.60;;;;;;;;;;5091336;28;20426;-74
2021/12/03 06:07:31;;;;;;;7.47;2.27;;;;;;;;;;5091400;28;20401;-75
2021/12/03 06:09:57;;;;;;;8.47;3.13;;;;;;;;;;5091158;28;20445;-75
2021/12/03 06:12:23;;;;;;;4.07;1.93;;;;;;;;;;5073269;28;20402;-76
2021/12/03 06:14:49;;;;;;;13.80;3.23;;;;;;;;;;5090060;28;20931;-75
2021/12/03 06:17:15;;;;;;;13.27;3.63;;;;;;;;;;5091300;28;20765;-75
2021/12/03 06:19:42;;;;;;;5.53;2.53;;;;;;;;;;5090963;28;20493;-76
2021/12/03 06:22:09;;;;;;;14.93;3.80;;;;;;;;;;5091425;28;20761;-75
2021/12/03 06:24:35;;;;;;;6.17;2.73;;;;;;;;;;5073056;28;20820;-75
2021/12/03 06:27:01;;;;;;;8.90;2.67;;;;;;;;;;5090703;28;21029;-74
2021/12/03 06:29:27;;;;;;;8.70;2.53;;;;;;;;;;5071410;28;20464;-74
2021/12/03 06:31:53;;;;;;;7.17;3.10;;;;;;;;;;5094436;28;20477;-74
2021/12/03 06:34:19;;;;;;;9.97;3.03;;;;;;;;;;5094918;28;20811;-75
2021/12/03 06:36:45;;;;;;;7.00;2.47;;;;;;;;;;5093507;28;20985;-74
2021/12/03 06:39:12;;;;;;;8.87;2.80;;;;;;;;;;5093907;28;20899;-74
2021/12/03 06:41:38;;;;;;;9.30;3.40;;;;;;;;;;5093579;28;20965;-74
2021/12/03 06:44:05;;;;;;;14.37;3.50;;;;;;;;;;5093346;28;20932;-75
2021/12/03 06:46:31;;;;;;;5.20;2.50;;;;;;;;;;5093786;28;20422;-74
2021/12/03 06:48:57;;;;;;;5.63;2.20;;;;;;;;;;5076348;28;20398;-74
2021/12/03 06:51:24;;;;;;;8.27;2.60;;;;;;;;;;5076570;28;20449;-74
2021/12/03 06:53:59;;;;;;;9.90;3.53;;;;;;;;;;5094645;28;20406;-74
2021/12/03 06:56:32;;;;;;;8.93;3.10;;;;;;;;;;5094865;28;20409;-75
2021/12/03 06:58:59;;;;;;;6.80;2.30;;;;;;;;;;5094438;28;20493;-75
2021/12/03 07:01:25;;;;;;;3.10;2.13;;;;;;;;;;5094512;28;20757;-76
2021/12/03 07:03:51;;;;;;;5.83;2.47;;;;;;;;;;5094468;28;20405;-75
2021/12/03 07:06:17;;;;;;;9.73;2.23;;;;;;;;;;5094470;28;20421;-74
2021/12/03 07:08:43;;;;;;;6.37;1.73;;;;;;;;;;5095505;28;20764;-74
2021/12/03 07:11:09;;;;;;;11.80;4.07;;;;;;;;;;5094308;28;20453;-75
2021/12/03 07:13:35;;;;;;;14.37;3.20;;;;;;;;;;5094717;28;20811;-75
2021/12/03 07:16:05;;;;;;;8.67;3.03;;;;;;;;;;5094300;28;20424;-74
2021/12/03 07:18:31;;;;;;;6.37;2.77;;;;;;;;;;5094564;28;20493;-74
2021/12/03 07:20:57;;;;;;;3.07;1.80;;;;;;;;;;5094149;28;20936;-74
2021/12/03 07:23:23;;;;;;;14.47;3.73;;;;;;;;;;5094339;28;20960;-74
2021/12/03 07:25:49;;;;;;;13.53;4.03;;;;;;;;;;5075688;28;20552;-74
2021/12/03 07:28:16;;;;;;;15.73;4.33;;;;;;;;;;5076008;28;20410;-74
2021/12/03 07:30:42;;;;;;;11.93;3.03;;;;;;;;;;5093803;28;20454;-74
2021/12/03 07:33:12;;;;;;;6.77;3.37;;;;;;;;;;5093939;28;20405;-74
2021/12/03 07:35:38;;;;;;;17.00;4.90;;;;;;;;;;5093873;28;20428;-75
2021/12/03 07:38:04;;;;;;;14.77;4.53;;;;;;;;;;5093972;28;20405;-75
2021/12/03 07:40:30;;;;;;;11.20;3.77;;;;;;;;;;5093440;28;20409;-74
2021/12/03 07:42:56;;;;;;;39.50;4.63;;;;;;;;;;5092766;28;20402;-74
2021/12/03 07:45:22;;;;;;;26.83;5.50;;;;;;;;;;5093572;28;20487;-75
2021/12/03 07:47:48;;;;;;;12.33;2.40;;;;;;;;;;5093832;28;20446;-74
2021/12/03 07:50:14;;;;;;;11.70;2.23;;;;;;;;;;5093296;28;20488;-74
2021/12/03 07:52:41;;;;;;;6.87;2.87;;;;;;;;;;5093853;28;20889;-74
2021/12/03 07:55:07;;;;;;;7.20;2.97;;;;;;;;;;5093464;28;20908;-74
2021/12/03 07:57:33;;;;;;;4.17;1.77;;;;;;;;;;5093526;28;20406;-74
2021/12/03 08:00:00;;;;;;;7.90;1.70;;;;;;;;;;5075003;28;20417;-75
2021/12/03 08:02:26;;;;;;;4.23;1.50;;;;;;;;;;5093788;28;20493;-74
2021/12/03 08:04:53;;;;;;;2.97;1.50;;;;;;;;;;5092568;28;20402;-74
2021/12/03 08:07:19;;;;;;;13.27;2.50;;;;;;;;;;5092097;28;20904;-74
2021/12/03 08:09:45;;;;;;;5.50;2.23;;;;;;;;;;5091914;28;20457;-74
2021/12/03 08:12:11;;;;;;;3.50;1.50;;;;;;;;;;5092310;28;20394;-74
2021/12/03 08:14:37;;;;;;;10.83;2.13;;;;;;;;;;5073842;28;20402;-74
2021/12/03 08:17:03;;;;;;;5.53;1.97;;;;;;;;;;5092212;28;20429;-74
2021/12/03 08:19:29;;;;;;;5.50;1.53;;;;;;;;;;5092064;28;20409;-74
2021/12/03 08:21:55;;;;;;;5.80;1.87;;;;;;;;;;5093126;28;20410;-74
2021/12/03 08:24:21;;;;;;;5.67;1.87;;;;;;;;;;5092979;28;20470;-74
2021/12/03 08:26:47;;;;;;;3.27;1.63;;;;;;;;;;5092848;28;20820;-74
2021/12/03 08:29:13;;;;;;;3.87;1.63;;;;;;;;;;5092434;28;20429;-74
2021/12/03 08:31:39;;;;;;;6.97;1.87;;;;;;;;;;5093017;28;20397;-74
2021/12/03 08:34:06;;;;;;;3.17;1.67;;;;;;;;;;5092793;28;20757;-74
2021/12/03 08:36:32;;;;;;;6.57;1.80;;;;;;;;;;5092749;28;20498;-74
2021/12/03 08:38:58;;;;;;;5.67;1.50;;;;;;;;;;5092475;28;20471;-74
2021/12/03 08:41:24;;;;;;;2.97;1.43;;;;;;;;;;5092681;28;20881;-74
2021/12/03 08:43:50;;;;;;;4.47;1.40;;;;;;;;;;5092699;28;20410;-74
2021/12/03 08:46:39;;;;;;;4.40;2.00;;;;;;;;;;5074333;28;20872;-74
2021/12/03 08:49:49;;;;;;;4.50;1.73;;;;;;;;;;5091669;28;20425;-75
2021/12/03 08:54:49;;;;;;;5.03;1.63;;;;;;;;;;5092267;28;20448;-74
2021/12/03 08:57:15;;;;;;;3.07;1.53;;;;;;;;;;5092539;28;20730;-74
2021/12/03 08:59:41;;;;;;;2.60;1.27;;;;;;;;;;5091947;28;20437;-75
2021/12/03 09:02:07;;;;;;;2.47;1.00;;;;;;;;;;5092384;28;20434;-75
2021/12/03 09:04:34;;;;;;;2.13;0.90;;;;;;;;;;5092175;28;20979;-74
2021/12/03 09:07:00;;;;;;;2.10;1.10;;;;;;;;;;5092126;28;20424;-74
2021/12/03 09:09:27;;;;;;;3.67;1.20;;;;;;;;;;5091741;28;20410;-74
2021/12/03 09:11:53;;;;;;;2.77;1.47;;;;;;;;;;5092264;28;20394;-75
2021/12/03 09:14:28;;;;;;;1.80;0.93;;;;;;;;;;5092094;28;20402;-74
2021/12/03 09:19:50;;;;;;;1.23;0.77;;;;;;;;;;5091771;28;20471;-74
2021/12/03 09:22:27;;;;;;;1.97;0.90;;;;;;;;;;5092293;28;20825;-74
2021/12/03 09:24:54;;;;;;;2.23;1.20;;;;;;;;;;5091765;28;20408;-74
2021/12/03 09:27:20;;;;;;;1.93;1.03;;;;;;;;;;5092094;28;20426;-74
2021/12/03 09:29:47;;;;;;;1.57;0.73;;;;;;;;;;5091452;28;21136;-74
2021/12/03 09:32:21;;;;;;;1.67;0.80;;;;;;;;;;5091878;28;20768;-74
2021/12/03 09:34:47;;;;;;;1.37;0.80;;;;;;;;;;5091706;28;20485;-74
2021/12/03 09:37:13;;;;;;;2.67;1.03;;;;;;;;;;5073614;28;20418;-74
2021/12/03 09:39:41;;;;;;;5.03;1.03;;;;;;;;;;5091360;28;20888;-74
2021/12/03 09:42:08;;;;;;;5.83;1.67;;;;;;;;;;5091792;28;20406;-74
2021/12/03 09:44:38;;;;;;;3.03;1.17;;;;;;;;;;5091562;28;20394;-74
2021/12/03 09:47:04;;;;;;;2.73;0.80;;;;;;;;;;5091645;28;20766;-74
2021/12/03 09:49:35;;;;;;;1.77;1.00;;;;;;;;;;5091599;28;20822;-74
2021/12/03 09:52:10;;;;;;;3.87;1.00;;;;;;;;;;5091695;28;20460;-74
2021/12/03 09:57:07;;;;;;;1.80;0.93;;;;;;;;;;5091393;28;20433;-74
2021/12/03 10:02:29;;;;;;;1.73;1.00;;;;;;;;;;5091614;28;20490;-74
2021/12/03 10:05:18;;;;;;;6.30;1.47;;;;;;;;;;5090789;28;20761;-75
2021/12/03 10:18:09;;;;;;;1.60;1.00;;;;;;;;;;5091368;28;20393;-75
2021/12/03 10:28:28;;;;;;;1.67;0.90;;;;;;;;;;5091160;28;20462;-74
2021/12/03 10:34:00;;;;;;;1.90;0.90;;;;;;;;;;5091251;28;20764;-74
2021/12/03 10:36:45;;;;;;;1.43;0.90;;;;;;;;;;5091191;28;20643;-74
2021/12/03 10:39:52;;;;;;;1.10;0.60;;;;;;;;;;5090815;28;20955;-74
2021/12/03 10:45:59;;;;;;;1.93;0.87;;;;;;;;;;5090862;28;20394;-74
2021/12/03 10:55:45;;;;;;;1.90;1.00;;;;;;;;;;5090749;28;20426;-74
2021/12/03 13:24:30;;;;;;;1.30;0.80;;;;;;;;;;5100255;28;20409;-80
2021/12/03 13:30:20;;;;;;;1.37;0.67;;;;;;;;;;5053557;28;20526;-79
2021/12/03 14:06:00;;;;;;;1.47;0.60;;;;;;;;;;5098116;28;20923;-79
2021/12/03 14:37:38;;;;;;;1.20;0.80;;;;;;;;;;5094086;28;20390;-85
2021/12/03 14:46:11;;;;;;;1.83;0.83;;;;;;;;;;5114080;28;20480;-84
2021/12/03 14:48:42;;;;;;;3.03;0.70;;;;;;;;;;5113686;28;20409;-84
2021/12/03 14:54:45;;;;;;;0.90;0.50;;;;;;;;;;5119309;28;20430;-84
2021/12/03 14:57:21;;;;;;;1.10;0.50;;;;;;;;;;5114276;28;20442;-84
2021/12/03 14:59:51;;;;;;;1.30;0.70;;;;;;;;;;5099951;28;20409;-84
2021/12/03 15:02:27;;;;;;;1.13;0.60;;;;;;;;;;5099353;28;20817;-82
2021/12/03 15:05:12;;;;;;;1.90;0.90;;;;;;;;;;5117494;28;20397;-85
2021/12/03 15:07:50;;;;;;;1.90;0.77;;;;;;;;;;5092482;28;20405;-84
2021/12/03 15:10:27;;;;;;;1.67;0.83;;;;;;;;;;5120177;28;20465;-84
2021/12/03 15:14:19;;;;;;;1.10;0.60;;;;;;;;;;5102741;28;20695;-83
2021/12/03 15:16:36;;;;;;;1.10;0.60;;;;;;;;;;5084807;28;20853;-85
2021/12/03 15:19:02;;;;;;;2.30;0.90;;;;;;;;;;5097360;28;20421;-81
2021/12/03 15:54:14;;;;;;;1.77;0.80;;;;;;;;;;5114650;28;20404;-81
2021/12/03 15:56:56;;;;;;;1.20;0.50;;;;;;;;;;5095648;28;20417;-82
2021/12/03 16:09:27;;;;;;;2.73;0.70;;;;;;;;;;5096356;28;20390;-80
2021/12/03 16:12:02;;;;;;;1.73;0.70;;;;;;;;;;5097326;28;20426;-81
2021/12/03 16:17:12;;;;;;;2.10;0.80;;;;;;;;;;5097081;28;20382;-82
2021/12/03 16:25:17;;;;;;;1.30;0.77;;;;;;;;;;5114154;28;20401;-80
2021/12/03 16:44:17;;;;;;;1.60;0.67;;;;;;;;;;5120151;28;20420;-82
2021/12/03 16:47:10;;;;;;;2.30;1.17;;;;;;;;;;5121286;28;20422;-79
2021/12/03 16:52:29;;;;;;;1.13;0.67;;;;;;;;;;5120851;28;20415;-80
2021/12/03 16:54:58;;;;;;;1.40;0.70;;;;;;;;;;5101616;28;20788;-81
2021/12/03 16:57:36;;;;;;;1.23;0.60;;;;;;;;;;5103586;28;20726;-81
2021/12/03 17:00:15;;;;;;;1.00;0.60;;;;;;;;;;5101717;28;20521;-81
2021/12/03 17:03:05;;;;;;;1.67;0.60;;;;;;;;;;5102635;28;20430;-80
2021/12/03 17:22:20;;;;;;;1.33;0.77;;;;;;;;;;5119395;28;20512;-82
2021/12/03 17:24:44;;;;;;;1.40;0.70;;;;;;;;;;5116331;28;20430;-81
2021/12/03 17:30:17;;;;;;;1.30;0.60;;;;;;;;;;5099300;28;20904;-81
2021/12/03 17:47:05;;;;;;;1.00;0.50;;;;;;;;;;5101094;28;20405;-82
2021/12/03 17:56:44;;;;;;;1.97;0.70;;;;;;;;;;5094677;28;20400;-81
2021/12/03 18:01:47;;;;;;;1.00;0.60;;;;;;;;;;5096809;28;20430;-81
2021/12/03 18:04:23;;;;;;;1.30;0.60;;;;;;;;;;5077812;28;20405;-82
2021/12/03 18:12:47;;;;;;;1.20;0.60;;;;;;;;;;5094908;28;20392;-82
2021/12/03 18:48:20;;;;;;;1.10;0.60;;;;;;;;;;5098569;28;20385;-83
2021/12/03 18:55:58;;;;;;;1.50;0.73;;;;;;;;;;5098798;28;20390;-83
2021/12/03 18:58:26;;;;;;;1.10;0.70;;;;;;;;;;5099360;28;20398;-83
2021/12/03 19:00:57;;;;;;;1.20;0.70;;;;;;;;;;5098181;28;20483;-83
2021/12/03 19:03:58;;;;;;;1.63;0.63;;;;;;;;;;5079778;28;20463;-83
2021/12/03 19:06:28;;;;;;;1.47;0.90;;;;;;;;;;5098533;28;20393;-83
2021/12/03 19:09:02;;;;;;;2.13;0.80;;;;;;;;;;5079896;28;20402;-83
2021/12/03 19:11:36;;;;;;;1.30;0.70;;;;;;;;;;5080201;28;20572;-84
2021/12/03 19:14:02;;;;;;;1.23;0.70;;;;;;;;;;5097391;28;20393;-84
2021/12/03 19:16:29;;;;;;;1.43;0.70;;;;;;;;;;5079061;28;20462;-83
2021/12/03 19:18:57;;;;;;;1.47;0.63;;;;;;;;;;5078539;28;20417;-83
2021/12/03 19:21:26;;;;;;;1.50;0.90;;;;;;;;;;5078803;28;20508;-83
2021/12/03 19:23:54;;;;;;;2.07;0.70;;;;;;;;;;5098460;28;20892;-83
2021/12/03 19:26:20;;;;;;;1.20;0.70;;;;;;;;;;5080762;28;20442;-84
2021/12/03 19:28:47;;;;;;;2.07;0.80;;;;;;;;;;5080125;28;20439;-83
2021/12/03 19:31:14;;;;;;;1.23;0.80;;;;;;;;;;5079761;28;20465;-83
2021/12/03 19:33:40;;;;;;;1.17;0.70;;;;;;;;;;5095883;28;20398;-83
2021/12/03 19:36:07;;;;;;;1.40;0.70;;;;;;;;;;5078391;28;20429;-83
2021/12/03 19:38:37;;;;;;;1.10;0.70;;;;;;;;;;5096587;28;20900;-84
2021/12/03 19:41:12;;;;;;;1.47;0.80;;;;;;;;;;5100539;28;20451;-83
2021/12/03 19:43:46;;;;;;;1.10;0.73;;;;;;;;;;5070101;28;20469;-82
2021/12/03 19:46:19;;;;;;;1.97;0.90;;;;;;;;;;5100872;28;20409;-82
2021/12/03 19:48:51;;;;;;;2.30;0.90;;;;;;;;;;5083630;28;20402;-83
2021/12/03 19:51:20;;;;;;;1.30;0.93;;;;;;;;;;5081003;28;20464;-83
2021/12/03 19:53:57;;;;;;;1.57;0.70;;;;;;;;;;5082763;28;20908;-85
2021/12/03 19:56:23;;;;;;;1.33;0.80;;;;;;;;;;5083886;28;20406;-85
2021/12/03 19:58:49;;;;;;;2.17;1.00;;;;;;;;;;5102515;28;20426;-83
2021/12/03 20:01:15;;;;;;;1.80;0.80;;;;;;;;;;5080263;28;20422;-82
2021/12/03 20:03:43;;;;;;;1.50;0.80;;;;;;;;;;5098083;28;20419;-83
2021/12/03 20:06:09;;;;;;;1.47;0.83;;;;;;;;;;5079188;28;20413;-82
2021/12/03 20:08:35;;;;;;;2.40;1.00;;;;;;;;;;5077965;28;21008;-83
2021/12/03 20:11:06;;;;;;;2.40;0.90;;;;;;;;;;5077330;28;20465;-83
2021/12/03 20:13:33;;;;;;;1.17;0.80;;;;;;;;;;5077928;28;20405;-82
2021/12/03 20:16:10;;;;;;;1.00;0.70;;;;;;;;;;5095723;28;20470;-83
2021/12/03 20:21:04;;;;;;;1.90;0.90;;;;;;;;;;5093688;28;20429;-82
2021/12/03 20:23:48;;;;;;;1.60;1.00;;;;;;;;;;5114750;28;20421;-82
2021/12/03 20:28:54;;;;;;;2.13;1.00;;;;;;;;;;5108850;28;20912;-82
2021/12/03 20:31:23;;;;;;;1.17;0.80;;;;;;;;;;5096006;28;20488;-82
2021/12/03 20:36:29;;;;;;;4.23;0.80;;;;;;;;;;5096345;28;20424;-82
2021/12/03 20:38:57;;;;;;;1.80;1.00;;;;;;;;;;5098732;28;20409;-83
2021/12/03 20:54:43;;;;;;;2.63;0.80;;;;;;;;;;5098668;28;20761;-83
2021/12/03 20:57:46;;;;;;;1.33;0.90;;;;;;;;;;5079109;28;20405;-81
2021/12/03 21:08:37;;;;;;;1.27;0.70;;;;;;;;;;5097962;28;20468;-82
2021/12/03 21:11:06;;;;;;;4.27;0.67;;;;;;;;;;5097535;28;20572;-82
2021/12/03 21:13:36;;;;;;;1.43;0.70;;;;;;;;;;5080511;28;20471;-82
2021/12/03 21:21:23;;;;;;;1.33;0.90;;;;;;;;;;5098291;28;20469;-83
2021/12/03 21:23:49;;;;;;;1.00;0.60;;;;;;;;;;5098747;28;20935;-82
2021/12/03 21:26:21;;;;;;;1.17;0.60;;;;;;;;;;5096366;28;20422;-83
2021/12/03 21:42:12;;;;;;;1.80;0.93;;;;;;;;;;5097958;28;20398;-81
2021/12/03 21:44:38;;;;;;;1.20;0.80;;;;;;;;;;5097584;28;20390;-83
2021/12/03 21:47:04;;;;;;;1.10;0.70;;;;;;;;;;5097857;28;20416;-82
2021/12/03 21:49:30;;;;;;;1.37;0.80;;;;;;;;;;5097919;28;20414;-82
2021/12/03 21:51:56;;;;;;;1.60;0.80;;;;;;;;;;5100907;28;20468;-81
2021/12/03 21:54:23;;;;;;;1.70;0.83;;;;;;;;;;5092489;28;20455;-81
2021/12/03 21:56:54;;;;;;;1.10;0.73;;;;;;;;;;5080528;28;20410;-81
2021/12/03 21:59:20;;;;;;;1.37;0.73;;;;;;;;;;5096779;28;20430;-82
2021/12/03 22:01:46;;;;;;;1.20;0.90;;;;;;;;;;5096841;28;20424;-82
2021/12/03 22:04:12;;;;;;;1.20;0.70;;;;;;;;;;5103323;28;20406;-82
2021/12/03 22:06:40;;;;;;;2.60;0.70;;;;;;;;;;5095289;28;20432;-82
2021/12/03 22:09:06;;;;;;;1.10;0.60;;;;;;;;;;5096410;28;20413;-81
2021/12/03 22:11:32;;;;;;;1.20;0.70;;;;;;;;;;5117016;28;20453;-82
2021/12/03 22:13:58;;;;;;;1.30;0.70;;;;;;;;;;5119474;28;20389;-82
2021/12/03 22:16:24;;;;;;;1.30;0.90;;;;;;;;;;5119418;28;20925;-82
2021/12/03 22:18:51;;;;;;;1.80;1.20;;;;;;;;;;5116810;28;21009;-81
2021/12/03 22:21:17;;;;;;;1.63;0.80;;;;;;;;;;5097719;28;20432;-82
2021/12/03 22:23:44;;;;;;;1.10;0.70;;;;;;;;;;5116984;28;20872;-82
2021/12/03 22:26:11;;;;;;;1.10;0.63;;;;;;;;;;5098212;28;20421;-83
2021/12/03 22:28:38;;;;;;;1.37;0.70;;;;;;;;;;5098745;28;20413;-82
2021/12/03 22:31:04;;;;;;;1.10;0.80;;;;;;;;;;5116582;28;20472;-81
2021/12/03 22:33:30;;;;;;;2.13;0.70;;;;;;;;;;5116825;28;20405;-82
2021/12/03 22:35:57;;;;;;;2.00;0.70;;;;;;;;;;5117522;28;20401;-82
2021/12/03 22:38:23;;;;;;;1.60;0.90;;;;;;;;;;5114974;28;20425;-83
2021/12/03 22:40:49;;;;;;;1.23;0.77;;;;;;;;;;5093029;28;20436;-82